Página principal
METAR-TAF:

METAR-TAF

Aeroportos :

Porto Santo, Portugal

Aeroporto do Porto Santo

latitude: 33-04N, longitude: 016-21W, altura: 97 m

Observação actual do tempo

O boletim foi feito há 34 minutos, às 08:00 UTC
Vento 7 kt de nordeste, variando entre norte e este
Temperatura 21°C
Humidade 73%
Pressão 1017 hPa
Visibilidade 10 km ou mais
Nuvens dispersasa uma altura de 1500 ft

METAR: LPPS 260800Z 04007KT 350V080 9999 SCT015 21/16 Q1017

Hora: 09:34 (08:34 UTC)


TAF: em falta

Observações e previsões do tempo de mais de 4000 aeroportos (mensagens METAR e TAF).

As estações disponíveis são os pontos amarelos e vermelhos sobre o mapa.

Mova o rato sobre o mapa para ver o nome da estação.

Depois clique no ponto para visualizar as observações e previsões meteorológicas.

Para alterar o mapa : clique nos botões verdes com uma cruz preta para aumentar o zoom; no botão verde com uma pitada de zoom; ou nas setas verdes para mapas adjacentes.


METAR-TAF: